Time;durP1;ratioP1;P1;durP2;ratioP2;P2;SDS_P1;SDS_P2;PMS_P1;PMS_P2;Temp;Humidity;BMP_temperature;BMP_pressure;BME280_temperature;BME280_humidity;BME280_pressure;Samples;Min_cycle;Max_cycle;Signal;HPM_P1;HPM_P2
2022/05/18 00:00:51;;;;;;;1.83;0.50;;;;;;;;;;4974892;28;20507;-65
2022/05/18 00:03:36;;;;;;;1.98;0.68;;;;;;;;;;4990197;28;20050;-66
2022/05/18 00:06:08;;;;;;;1.58;1.17;;;;;;;;;;4959007;28;20070;-63
2022/05/18 00:08:39;;;;;;;1.98;0.50;;;;;;;;;;4954208;28;20050;-65
2022/05/18 00:11:16;;;;;;;2.00;0.60;;;;;;;;;;4971186;28;20061;-65
2022/05/18 00:13:49;;;;;;;1.15;0.70;;;;;;;;;;4970793;28;20054;-65
2022/05/18 00:16:20;;;;;;;;;;;;;;;;;;4987269;28;20525;-65
2022/05/18 00:18:52;;;;;;;1.50;0.40;;;;;;;;;;4990226;28;19922;-66
2022/05/18 00:21:23;;;;;;;2.58;0.50;;;;;;;;;;5020887;28;20124;-64
2022/05/18 00:23:54;;;;;;;1.42;0.50;;;;;;;;;;5012793;28;20054;-65
2022/05/18 00:26:26;;;;;;;2.08;0.60;;;;;;;;;;5029555;28;20069;-63
2022/05/18 00:28:57;;;;;;;2.92;0.60;;;;;;;;;;5029380;28;20057;-65
2022/05/18 00:31:27;;;;;;;2.50;0.50;;;;;;;;;;5029535;28;20060;-64
2022/05/18 00:33:58;;;;;;;1.77;0.57;;;;;;;;;;4989674;28;20422;-65
2022/05/18 00:36:29;;;;;;;1.63;0.73;;;;;;;;;;4990032;28;20065;-66
2022/05/18 00:39:00;;;;;;;3.72;0.50;;;;;;;;;;4990221;28;20054;-65
2022/05/18 00:41:33;;;;;;;2.90;0.57;;;;;;;;;;4990355;28;20062;-66
2022/05/18 00:44:04;;;;;;;2.17;0.50;;;;;;;;;;4970719;28;20051;-66
2022/05/18 00:46:35;;;;;;;1.88;0.50;;;;;;;;;;4962123;28;20059;-65
2022/05/18 00:49:08;;;;;;;1.58;0.55;;;;;;;;;;4970338;28;20534;-68
2022/05/18 00:51:55;;;;;;;1.52;0.43;;;;;;;;;;4934508;28;20057;-65
2022/05/18 00:54:31;;;;;;;1.67;0.40;;;;;;;;;;4990042;28;20164;-65
2022/05/18 00:57:08;;;;;;;1.10;0.40;;;;;;;;;;4990276;28;20054;-65
2022/05/18 00:59:48;;;;;;;2.35;0.50;;;;;;;;;;4989996;28;20069;-65
2022/05/18 01:02:22;;;;;;;3.10;0.80;;;;;;;;;;4974265;28;20054;-67
2022/05/18 01:04:55;;;;;;;1.25;0.40;;;;;;;;;;4990016;28;20526;-68
2022/05/18 01:07:31;;;;;;;3.60;0.43;;;;;;;;;;4951553;28;20565;-65
2022/05/18 01:10:05;;;;;;;6.47;1.00;;;;;;;;;;4931680;29;20062;-65
2022/05/18 01:12:35;;;;;;;0.57;0.40;;;;;;;;;;4966032;28;20065;-65
2022/05/18 01:15:10;;;;;;;0.93;0.40;;;;;;;;;;5009443;28;20456;-66
2022/05/18 01:17:44;;;;;;;0.73;0.50;;;;;;;;;;5009531;28;20042;-65
2022/05/18 01:20:21;;;;;;;0.85;0.32;;;;;;;;;;4993768;28;20549;-67
2022/05/18 01:23:26;;;;;;;4.00;0.55;;;;;;;;;;4995905;28;20548;-65
2022/05/18 01:26:35;;;;;;;1.52;0.32;;;;;;;;;;5009418;28;20052;-65
2022/05/18 01:29:07;;;;;;;3.10;0.50;;;;;;;;;;4920814;29;20060;-69
2022/05/18 01:32:02;;;;;;;4.00;0.40;;;;;;;;;;4885303;29;20500;-68
2022/05/18 01:34:37;;;;;;;3.50;0.55;;;;;;;;;;4916161;29;20532;-66
2022/05/18 01:37:09;;;;;;;0.55;0.50;;;;;;;;;;4915934;29;20527;-67
2022/05/18 01:39:51;;;;;;;1.10;0.45;;;;;;;;;;4916267;29;20060;-66
2022/05/18 01:42:44;;;;;;;0.43;0.32;;;;;;;;;;4916169;29;20055;-66
2022/05/18 01:45:15;;;;;;;0.82;0.40;;;;;;;;;;4911430;29;20062;-66
2022/05/18 01:47:48;;;;;;;0.45;0.28;;;;;;;;;;4915182;29;20047;-67
2022/05/18 01:50:27;;;;;;;1.58;0.52;;;;;;;;;;4906803;29;20099;-66
2022/05/18 01:52:58;;;;;;;;;;;;;;;;;;4935258;29;20443;-65
2022/05/18 01:55:28;;;;;;;1.17;0.30;;;;;;;;;;4919577;29;20022;-65
2022/05/18 01:57:59;;;;;;;0.70;0.30;;;;;;;;;;4918784;29;20062;-66
2022/05/18 02:00:31;;;;;;;0.82;0.40;;;;;;;;;;4934870;29;20060;-65
2022/05/18 02:03:02;;;;;;;1.17;0.30;;;;;;;;;;4935084;29;20047;-65
2022/05/18 02:05:33;;;;;;;0.68;0.30;;;;;;;;;;4942830;28;20073;-66
2022/05/18 02:08:05;;;;;;;1.05;0.40;;;;;;;;;;4973134;28;20062;-65
2022/05/18 02:10:36;;;;;;;1.42;0.40;;;;;;;;;;4973169;28;20062;-65
2022/05/18 02:13:06;;;;;;;0.73;0.30;;;;;;;;;;4973281;28;20054;-67
2022/05/18 02:15:37;;;;;;;0.73;0.40;;;;;;;;;;4973096;28;20049;-65
2022/05/18 02:18:09;;;;;;;0.55;0.40;;;;;;;;;;4972823;28;20517;-67
2022/05/18 02:20:41;;;;;;;1.55;0.40;;;;;;;;;;4953385;29;20054;-66
2022/05/18 02:23:13;;;;;;;0.60;0.35;;;;;;;;;;4905970;29;20059;-65
2022/05/18 02:25:43;;;;;;;0.57;0.52;;;;;;;;;;4978069;28;20054;-67
2022/05/18 02:28:14;;;;;;;0.50;0.30;;;;;;;;;;4992381;28;20058;-65
2022/05/18 02:30:44;;;;;;;1.60;0.52;;;;;;;;;;5003160;28;20062;-69
2022/05/18 02:33:15;;;;;;;0.50;0.20;;;;;;;;;;4979478;28;20486;-66
2022/05/18 02:35:46;;;;;;;1.88;0.45;;;;;;;;;;5011738;28;20050;-67
2022/05/18 02:38:16;;;;;;;2.85;0.55;;;;;;;;;;4979368;28;20069;-66
2022/05/18 02:40:47;;;;;;;1.17;0.38;;;;;;;;;;5011719;28;20430;-65
2022/05/18 02:43:18;;;;;;;0.88;0.32;;;;;;;;;;4996000;28;20054;-66
2022/05/18 02:45:49;;;;;;;0.40;0.20;;;;;;;;;;4994914;28;20056;-68
2022/05/18 02:48:19;;;;;;;1.10;0.40;;;;;;;;;;4979148;28;20057;-68
2022/05/18 02:50:50;;;;;;;1.88;0.50;;;;;;;;;;5011338;28;20494;-65
2022/05/18 02:53:21;;;;;;;0.85;0.77;;;;;;;;;;4962818;28;20045;-65
2022/05/18 02:56:06;;;;;;;2.47;0.22;;;;;;;;;;5011005;28;20053;-69
2022/05/18 02:58:42;;;;;;;0.68;0.25;;;;;;;;;;4995451;28;20062;-65
2022/05/18 03:01:16;;;;;;;0.55;0.40;;;;;;;;;;4962209;28;20610;-66
2022/05/18 03:03:48;;;;;;;0.80;0.20;;;;;;;;;;4994700;28;20050;-65
2022/05/18 03:06:21;;;;;;;0.90;0.30;;;;;;;;;;5011316;28;20034;-66
2022/05/18 03:08:53;;;;;;;0.45;0.25;;;;;;;;;;5011218;28;20054;-67
2022/05/18 03:11:23;;;;;;;0.50;0.30;;;;;;;;;;5011506;28;20529;-66
2022/05/18 03:13:54;;;;;;;0.88;0.55;;;;;;;;;;4968182;28;20051;-66
2022/05/18 03:16:26;;;;;;;0.82;0.22;;;;;;;;;;4952880;29;20062;-68
2022/05/18 03:18:57;;;;;;;1.35;0.52;;;;;;;;;;4936754;29;20054;-67
2022/05/18 03:24:18;;;;;;;0.70;0.40;;;;;;;;;;4930015;29;20059;-66
2022/05/18 03:26:49;;;;;;;0.70;0.40;;;;;;;;;;4933401;29;20163;-66
2022/05/18 03:29:19;;;;;;;1.00;0.82;;;;;;;;;;4933246;29;20062;-68
2022/05/18 03:31:50;;;;;;;1.02;0.20;;;;;;;;;;4904867;29;20053;-67
2022/05/18 03:34:21;;;;;;;1.23;0.40;;;;;;;;;;4902440;29;20059;-67
2022/05/18 03:36:52;;;;;;;1.63;0.40;;;;;;;;;;4952726;29;20054;-68
2022/05/18 03:39:22;;;;;;;1.42;1.33;;;;;;;;;;4936663;29;20066;-67
2022/05/18 03:41:53;;;;;;;0.50;0.28;;;;;;;;;;4952233;29;20070;-67
2022/05/18 03:44:24;;;;;;;0.60;0.50;;;;;;;;;;4951462;28;20059;-67
2022/05/18 03:46:54;;;;;;;0.40;0.30;;;;;;;;;;4895086;29;20044;-68
2022/05/18 03:49:25;;;;;;;4.22;0.30;;;;;;;;;;4895051;29;20164;-68
2022/05/18 03:51:56;;;;;;;1.27;0.30;;;;;;;;;;4895245;29;20081;-68
2022/05/18 03:54:26;;;;;;;0.47;0.30;;;;;;;;;;4895153;29;20056;-68
2022/05/18 03:56:57;;;;;;;2.40;0.35;;;;;;;;;;4895276;29;20513;-67
2022/05/18 03:59:28;;;;;;;2.60;0.60;;;;;;;;;;4895234;29;20087;-67
2022/05/18 04:01:59;;;;;;;3.28;0.50;;;;;;;;;;4953354;28;20055;-68
2022/05/18 04:04:30;;;;;;;0.70;0.30;;;;;;;;;;4981335;28;20054;-69
2022/05/18 04:07:01;;;;;;;1.55;0.35;;;;;;;;;;4954868;28;20059;-68
2022/05/18 04:09:31;;;;;;;0.85;0.40;;;;;;;;;;4971288;28;20106;-68
2022/05/18 04:12:02;;;;;;;0.80;0.30;;;;;;;;;;4955248;28;20380;-70
2022/05/18 04:14:33;;;;;;;0.75;0.35;;;;;;;;;;4970971;28;20046;-67
2022/05/18 04:17:04;;;;;;;1.38;0.40;;;;;;;;;;4970967;28;20043;-67
2022/05/18 04:19:35;;;;;;;0.43;0.30;;;;;;;;;;4970816;28;20062;-67
2022/05/18 04:22:06;;;;;;;0.47;0.30;;;;;;;;;;4971135;28;20065;-67
2022/05/18 04:24:37;;;;;;;0.55;0.30;;;;;;;;;;4989100;28;20058;-67
2022/05/18 04:27:07;;;;;;;0.98;0.22;;;;;;;;;;4990566;28;20058;-67
2022/05/18 04:29:38;;;;;;;1.50;0.32;;;;;;;;;;4990130;28;20050;-67
2022/05/18 04:32:10;;;;;;;0.45;0.30;;;;;;;;;;4990326;28;20061;-67
2022/05/18 04:34:41;;;;;;;1.10;0.40;;;;;;;;;;4955415;28;20066;-67
2022/05/18 04:37:11;;;;;;;1.70;1.60;;;;;;;;;;4938654;28;20419;-66
2022/05/18 04:39:42;;;;;;;0.60;0.20;;;;;;;;;;4970742;28;20059;-67
2022/05/18 04:42:14;;;;;;;0.32;0.20;;;;;;;;;;4922883;28;20070;-68
2022/05/18 04:44:44;;;;;;;0.43;0.32;;;;;;;;;;4912960;29;20063;-67
2022/05/18 04:47:14;;;;;;;0.40;0.30;;;;;;;;;;4913502;29;20064;-67
2022/05/18 04:49:45;;;;;;;0.80;0.30;;;;;;;;;;4913440;29;20079;-68
2022/05/18 04:52:15;;;;;;;0.52;0.28;;;;;;;;;;4882132;29;20059;-68
2022/05/18 04:54:46;;;;;;;0.73;0.30;;;;;;;;;;4923454;29;20087;-67
2022/05/18 04:57:18;;;;;;;0.50;0.20;;;;;;;;;;4904147;29;20055;-68
2022/05/18 04:59:48;;;;;;;1.10;0.30;;;;;;;;;;4916958;29;20113;-67
2022/05/18 05:02:19;;;;;;;0.50;0.40;;;;;;;;;;4917048;29;20512;-68
2022/05/18 05:04:50;;;;;;;0.82;0.20;;;;;;;;;;4894416;29;20060;-68
2022/05/18 05:07:21;;;;;;;0.22;0.20;;;;;;;;;;4926722;29;20048;-69
2022/05/18 05:09:52;;;;;;;0.60;0.20;;;;;;;;;;4936095;29;20066;-68
2022/05/18 05:12:25;;;;;;;1.17;0.30;;;;;;;;;;4946269;29;20062;-68
2022/05/18 05:14:55;;;;;;;0.47;0.22;;;;;;;;;;4955265;29;20206;-68
2022/05/18 05:17:26;;;;;;;0.68;0.32;;;;;;;;;;4954889;29;20062;-69
2022/05/18 05:19:59;;;;;;;0.95;0.32;;;;;;;;;;4907207;29;20051;-68
2022/05/18 05:22:29;;;;;;;0.38;0.25;;;;;;;;;;4936329;29;20410;-69
2022/05/18 05:25:00;;;;;;;0.40;0.20;;;;;;;;;;4954942;29;20055;-68
2022/05/18 05:27:31;;;;;;;0.93;0.30;;;;;;;;;;4954936;29;20539;-68
2022/05/18 05:30:03;;;;;;;0.40;0.30;;;;;;;;;;4907546;29;20062;-68
2022/05/18 05:32:34;;;;;;;0.50;0.30;;;;;;;;;;4954848;29;20059;-71
2022/05/18 05:35:09;;;;;;;0.68;0.20;;;;;;;;;;4954768;29;20070;-71
2022/05/18 05:37:40;;;;;;;0.57;0.20;;;;;;;;;;4954662;29;20055;-68
2022/05/18 05:40:11;;;;;;;0.47;0.22;;;;;;;;;;4954791;29;20062;-69
2022/05/18 05:42:42;;;;;;;0.50;0.20;;;;;;;;;;4965840;28;20066;-69
2022/05/18 05:45:13;;;;;;;0.30;0.30;;;;;;;;;;4996711;28;20456;-68
2022/05/18 05:47:44;;;;;;;0.22;0.20;;;;;;;;;;4941347;28;20054;-68
2022/05/18 05:50:20;;;;;;;4.50;0.65;;;;;;;;;;4973650;28;20043;-68
2022/05/18 05:52:50;;;;;;;0.20;0.20;;;;;;;;;;4957592;28;20047;-68
2022/05/18 05:55:22;;;;;;;1.35;0.43;;;;;;;;;;4992842;28;20057;-68
2022/05/18 05:57:54;;;;;;;0.65;0.28;;;;;;;;;;4960649;28;20055;-68
2022/05/18 06:00:25;;;;;;;0.95;0.30;;;;;;;;;;4972920;28;20054;-68
2022/05/18 06:02:55;;;;;;;0.20;0.10;;;;;;;;;;5012544;28;20061;-68
2022/05/18 06:05:26;;;;;;;0.22;0.20;;;;;;;;;;5032066;28;20072;-69
2022/05/18 06:07:59;;;;;;;0.65;0.30;;;;;;;;;;4991689;28;20055;-68
2022/05/18 06:10:29;;;;;;;0.45;0.28;;;;;;;;;;4992915;28;20058;-68
2022/05/18 06:13:04;;;;;;;0.40;0.20;;;;;;;;;;4992719;28;20051;-68
2022/05/18 06:15:35;;;;;;;0.30;0.20;;;;;;;;;;4992687;28;20406;-68
2022/05/18 06:18:07;;;;;;;0.25;0.20;;;;;;;;;;4992447;28;20062;-68
2022/05/18 06:20:42;;;;;;;0.22;0.20;;;;;;;;;;4972528;28;20050;-68
2022/05/18 06:23:14;;;;;;;1.85;0.25;;;;;;;;;;4957096;28;20055;-68
2022/05/18 06:25:46;;;;;;;0.52;0.50;;;;;;;;;;4985759;28;20066;-69
2022/05/18 06:28:17;;;;;;;;;;;;;;;;;;4996414;28;20546;-68
2022/05/18 06:30:47;;;;;;;0.55;0.20;;;;;;;;;;4972871;28;19922;-68
2022/05/18 06:33:18;;;;;;;0.20;0.13;;;;;;;;;;4972940;28;20075;-68
2022/05/18 06:35:51;;;;;;;0.40;0.20;;;;;;;;;;4940739;28;20062;-69
2022/05/18 06:38:23;;;;;;;1.02;0.60;;;;;;;;;;4988711;28;20063;-69
2022/05/18 06:43:42;;;;;;;0.50;0.28;;;;;;;;;;4988029;28;20051;-68
2022/05/18 06:46:13;;;;;;;0.80;0.20;;;;;;;;;;4988768;28;20061;-68
2022/05/18 06:48:44;;;;;;;0.60;0.20;;;;;;;;;;4998820;28;20068;-68
2022/05/18 06:51:19;;;;;;;0.30;0.30;;;;;;;;;;4998826;28;20053;-69
2022/05/18 06:53:54;;;;;;;0.73;0.25;;;;;;;;;;5011510;28;20509;-69
2022/05/18 06:56:31;;;;;;;0.50;0.28;;;;;;;;;;5011380;28;20058;-68
2022/05/18 06:59:03;;;;;;;0.98;0.40;;;;;;;;;;5027255;28;20069;-69
2022/05/18 07:01:34;;;;;;;0.38;0.32;;;;;;;;;;4975823;28;20043;-68
2022/05/18 07:04:06;;;;;;;0.80;0.45;;;;;;;;;;4959440;28;20529;-68
2022/05/18 07:06:39;;;;;;;0.90;0.32;;;;;;;;;;4991769;28;20050;-68
2022/05/18 07:09:13;;;;;;;0.50;0.20;;;;;;;;;;4992018;28;20054;-69
2022/05/18 07:11:46;;;;;;;0.50;0.20;;;;;;;;;;4991633;28;20050;-68
2022/05/18 07:14:19;;;;;;;0.70;0.20;;;;;;;;;;4991723;28;20061;-68
2022/05/18 07:16:50;;;;;;;0.85;0.30;;;;;;;;;;4975076;28;20061;-68
2022/05/18 07:19:23;;;;;;;0.65;0.40;;;;;;;;;;4991418;28;20553;-68
2022/05/18 07:21:53;;;;;;;0.55;0.40;;;;;;;;;;4975732;28;20050;-68
2022/05/18 07:24:23;;;;;;;1.15;0.40;;;;;;;;;;4991347;28;20062;-68
2022/05/18 07:26:54;;;;;;;0.47;0.30;;;;;;;;;;4991168;28;20050;-68
2022/05/18 07:29:25;;;;;;;1.30;0.50;;;;;;;;;;4991559;28;20069;-68
2022/05/18 07:32:14;;;;;;;0.57;0.30;;;;;;;;;;4972632;28;20062;-68
2022/05/18 07:34:45;;;;;;;0.52;0.30;;;;;;;;;;5010979;28;20046;-68
2022/05/18 07:37:19;;;;;;;1.60;0.47;;;;;;;;;;5010742;28;20057;-68
2022/05/18 07:39:50;;;;;;;0.68;0.43;;;;;;;;;;5024789;28;20392;-69
2022/05/18 07:42:20;;;;;;;1.13;0.50;;;;;;;;;;5050477;28;20195;-68
2022/05/18 07:44:51;;;;;;;1.10;0.40;;;;;;;;;;5034236;28;20065;-69
2022/05/18 07:47:32;;;;;;;4.00;0.50;;;;;;;;;;5050322;28;20044;-68
2022/05/18 07:50:04;;;;;;;0.98;0.63;;;;;;;;;;5050393;28;20049;-67
2022/05/18 07:52:35;;;;;;;1.38;0.50;;;;;;;;;;5050197;28;20071;-67
2022/05/18 07:55:06;;;;;;;1.55;0.57;;;;;;;;;;5010192;28;20076;-68
2022/05/18 07:57:37;;;;;;;0.73;0.43;;;;;;;;;;5010421;28;20050;-69
2022/05/18 08:00:09;;;;;;;1.13;0.35;;;;;;;;;;4994398;28;20124;-68
2022/05/18 08:02:47;;;;;;;0.93;0.47;;;;;;;;;;5010405;28;20406;-68
2022/05/18 08:05:17;;;;;;;1.15;0.50;;;;;;;;;;5010316;28;20160;-68
2022/05/18 08:07:48;;;;;;;0.82;0.45;;;;;;;;;;5010464;28;20058;-68
2022/05/18 08:15:58;;;;;;;0.40;0.20;;;;;;;;;;5010337;28;20501;-68
2022/05/18 08:18:29;;;;;;;1.23;0.50;;;;;;;;;;4994692;28;20069;-68
2022/05/18 08:21:01;;;;;;;0.90;0.55;;;;;;;;;;5009891;28;20052;-69
2022/05/18 08:23:31;;;;;;;0.88;0.50;;;;;;;;;;4961594;28;20054;-67
2022/05/18 08:26:03;;;;;;;0.55;0.30;;;;;;;;;;4994306;28;20061;-68
2022/05/18 08:28:34;;;;;;;0.75;0.40;;;;;;;;;;4970874;28;20498;-67
2022/05/18 08:31:05;;;;;;;0.57;0.43;;;;;;;;;;4970179;28;20058;-67
2022/05/18 08:33:36;;;;;;;2.15;0.60;;;;;;;;;;4987372;28;20054;-67
2022/05/18 08:36:08;;;;;;;1.80;0.50;;;;;;;;;;4970570;28;20054;-68
2022/05/18 08:38:39;;;;;;;1.67;0.45;;;;;;;;;;4970989;28;20051;-67
2022/05/18 08:41:15;;;;;;;2.60;0.63;;;;;;;;;;4954832;28;20518;-67
2022/05/18 08:43:50;;;;;;;2.15;0.98;;;;;;;;;;4970940;28;20058;-68
2022/05/18 08:46:39;;;;;;;0.95;0.60;;;;;;;;;;4970504;28;20066;-67
2022/05/18 08:49:13;;;;;;;1.20;0.50;;;;;;;;;;4970677;28;20059;-67
2022/05/18 08:52:05;;;;;;;0.93;0.60;;;;;;;;;;4970515;28;20054;-67
2022/05/18 08:55:12;;;;;;;2.38;0.60;;;;;;;;;;4970544;28;20062;-68
2022/05/18 08:57:48;;;;;;;1.30;0.47;;;;;;;;;;4951148;28;20059;-69
2022/05/18 09:00:25;;;;;;;0.68;0.50;;;;;;;;;;4931978;29;20048;-67
2022/05/18 09:03:12;;;;;;;1.10;0.50;;;;;;;;;;4912879;29;20579;-68
2022/05/18 09:06:21;;;;;;;2.13;0.50;;;;;;;;;;4914884;29;20523;-68
2022/05/18 09:11:55;;;;;;;1.58;0.80;;;;;;;;;;4909255;29;20067;-68
2022/05/18 09:14:28;;;;;;;2.50;0.70;;;;;;;;;;4898258;29;20104;-67
2022/05/18 09:17:24;;;;;;;0.80;0.52;;;;;;;;;;4878587;29;20053;-68
2022/05/18 09:20:15;;;;;;;2.03;0.52;;;;;;;;;;4894259;29;20160;-67
2022/05/18 09:22:55;;;;;;;1.88;0.60;;;;;;;;;;4912407;29;20060;-67
2022/05/18 09:25:28;;;;;;;2.03;0.77;;;;;;;;;;4894281;29;20057;-67
2022/05/18 09:28:08;;;;;;;1.77;0.73;;;;;;;;;;4894167;29;20421;-67
2022/05/18 09:30:50;;;;;;;1.15;0.52;;;;;;;;;;4913182;29;20060;-67
2022/05/18 09:33:48;;;;;;;1.67;0.77;;;;;;;;;;4882156;29;20052;-67
2022/05/18 09:36:54;;;;;;;2.40;0.90;;;;;;;;;;4897347;29;20056;-67
2022/05/18 09:39:28;;;;;;;1.25;0.63;;;;;;;;;;4950678;28;20059;-67
2022/05/18 09:42:04;;;;;;;1.20;0.50;;;;;;;;;;4932547;29;20385;-68
2022/05/18 09:44:47;;;;;;;1.15;0.63;;;;;;;;;;4946194;28;20057;-67
2022/05/18 09:47:22;;;;;;;1.35;0.70;;;;;;;;;;5009893;28;20050;-69
2022/05/18 09:50:00;;;;;;;3.08;0.50;;;;;;;;;;4973392;28;20055;-68
2022/05/18 09:52:31;;;;;;;3.50;0.50;;;;;;;;;;4982165;28;20065;-67
2022/05/18 09:55:04;;;;;;;1.67;0.70;;;;;;;;;;4961273;28;20098;-70
2022/05/18 09:57:41;;;;;;;1.25;0.50;;;;;;;;;;4973680;28;20058;-70
2022/05/18 10:00:20;;;;;;;2.45;0.50;;;;;;;;;;4956712;28;20054;-68
2022/05/18 10:08:48;;;;;;;0.80;0.35;;;;;;;;;;4968105;28;20054;-68
2022/05/18 10:11:23;;;;;;;1.30;0.50;;;;;;;;;;4935081;29;20056;-68
2022/05/18 10:14:06;;;;;;;1.00;0.60;;;;;;;;;;4934891;29;20504;-67
2022/05/18 10:17:08;;;;;;;0.80;0.40;;;;;;;;;;4896569;29;20053;-67
2022/05/18 10:19:59;;;;;;;0.80;0.57;;;;;;;;;;4886466;29;20061;-67
2022/05/18 10:22:31;;;;;;;1.65;0.43;;;;;;;;;;4865501;29;20065;-67
2022/05/18 10:25:07;;;;;;;1.48;0.70;;;;;;;;;;4865810;29;20060;-68
2022/05/18 10:27:44;;;;;;;1.08;0.47;;;;;;;;;;4849189;29;20046;-67
2022/05/18 10:30:32;;;;;;;0.82;0.50;;;;;;;;;;4841057;29;20062;-66
2022/05/18 10:33:18;;;;;;;1.27;0.52;;;;;;;;;;4859259;29;20430;-67
2022/05/18 10:35:49;;;;;;;;;;;;;;;;;;4814018;29;20073;-67
2022/05/18 10:38:34;;;;;;;1.42;0.60;;;;;;;;;;4859291;29;19924;-66
2022/05/18 10:41:05;;;;;;;1.42;0.60;;;;;;;;;;4873312;29;20081;-68
2022/05/18 10:43:40;;;;;;;1.13;0.57;;;;;;;;;;4892877;29;20065;-67
2022/05/18 10:46:19;;;;;;;1.70;0.50;;;;;;;;;;4877994;29;20088;-67
2022/05/18 10:49:08;;;;;;;0.75;0.30;;;;;;;;;;4885980;29;20065;-67
2022/05/18 10:51:39;;;;;;;1.15;0.45;;;;;;;;;;4877291;29;20069;-67
2022/05/18 10:54:28;;;;;;;1.65;0.43;;;;;;;;;;4866647;29;20535;-67
2022/05/18 10:57:17;;;;;;;4.70;0.60;;;;;;;;;;4877339;29;20072;-68
2022/05/18 11:00:11;;;;;;;4.05;0.60;;;;;;;;;;4877419;29;20116;-68
2022/05/18 11:03:00;;;;;;;2.00;0.50;;;;;;;;;;4892649;29;20060;-69
2022/05/18 11:05:43;;;;;;;0.75;0.40;;;;;;;;;;4899354;29;20079;-68
2022/05/18 11:08:17;;;;;;;1.73;0.63;;;;;;;;;;4883982;29;20512;-69
2022/05/18 11:11:23;;;;;;;3.03;0.60;;;;;;;;;;4924758;29;20059;-70
2022/05/18 11:14:35;;;;;;;1.20;0.40;;;;;;;;;;4886787;29;20068;-68
2022/05/18 11:17:06;;;;;;;2.15;0.90;;;;;;;;;;4876917;29;20542;-68
2022/05/18 11:19:43;;;;;;;1.17;0.57;;;;;;;;;;4877375;29;20071;-68
2022/05/18 11:22:27;;;;;;;1.75;0.63;;;;;;;;;;4861474;29;20057;-68
2022/05/18 11:25:09;;;;;;;1.65;0.50;;;;;;;;;;4877183;29;20101;-68
2022/05/18 11:28:19;;;;;;;2.17;0.60;;;;;;;;;;4876957;29;20053;-69
2022/05/18 11:31:14;;;;;;;1.27;0.40;;;;;;;;;;4817563;29;20068;-67
2022/05/18 11:34:15;;;;;;;2.83;0.68;;;;;;;;;;4901205;29;20052;-68
2022/05/18 11:37:02;;;;;;;2.15;0.65;;;;;;;;;;4933309;29;20040;-68
2022/05/18 11:39:57;;;;;;;1.38;1.13;;;;;;;;;;4933192;29;20044;-67
2022/05/18 11:42:46;;;;;;;1.00;0.50;;;;;;;;;;4932705;29;20052;-67
2022/05/18 11:45:40;;;;;;;0.82;0.32;;;;;;;;;;4933107;29;20043;-67
2022/05/18 11:48:47;;;;;;;0.47;0.30;;;;;;;;;;4933098;29;20489;-68
2022/05/18 11:51:23;;;;;;;1.08;0.70;;;;;;;;;;4932690;29;20403;-68
2022/05/18 11:54:25;;;;;;;0.90;0.60;;;;;;;;;;4942907;28;20163;-69
2022/05/18 11:57:05;;;;;;;1.73;0.35;;;;;;;;;;4923439;28;20058;-70
2022/05/18 12:00:00;;;;;;;1.67;0.50;;;;;;;;;;4971587;28;20431;-68
2022/05/18 12:02:46;;;;;;;1.10;0.43;;;;;;;;;;4971264;28;20092;-68
2022/05/18 12:05:41;;;;;;;1.30;0.50;;;;;;;;;;4970655;28;20058;-68
2022/05/18 12:08:50;;;;;;;0.80;0.57;;;;;;;;;;4954890;28;20046;-67
2022/05/18 12:11:36;;;;;;;2.53;0.50;;;;;;;;;;4936208;28;20076;-66
2022/05/18 12:14:16;;;;;;;0.70;0.52;;;;;;;;;;4977713;28;20050;-66
2022/05/18 12:17:24;;;;;;;2.28;0.60;;;;;;;;;;5010126;28;20054;-67
2022/05/18 12:19:57;;;;;;;1.17;0.50;;;;;;;;;;4932024;29;20048;-66
2022/05/18 12:22:37;;;;;;;1.20;0.50;;;;;;;;;;4933812;28;20524;-65
2022/05/18 12:25:13;;;;;;;0.85;0.30;;;;;;;;;;4970884;28;20101;-66
2022/05/18 12:27:45;;;;;;;0.77;0.30;;;;;;;;;;4932445;29;20059;-66
2022/05/18 12:30:18;;;;;;;1.77;0.40;;;;;;;;;;4932543;29;20591;-66
2022/05/18 12:32:51;;;;;;;1.38;0.55;;;;;;;;;;4932252;29;20070;-65
2022/05/18 12:35:36;;;;;;;1.83;0.43;;;;;;;;;;4900698;29;20056;-66
2022/05/18 12:38:27;;;;;;;1.25;0.40;;;;;;;;;;4932165;29;20058;-66
2022/05/18 12:41:14;;;;;;;1.00;0.40;;;;;;;;;;4901023;29;20078;-65
2022/05/18 12:43:45;;;;;;;0.75;0.40;;;;;;;;;;4932141;29;20058;-66
2022/05/18 12:46:16;;;;;;;1.33;0.65;;;;;;;;;;4915930;29;20066;-65
2022/05/18 12:49:00;;;;;;;1.75;0.50;;;;;;;;;;4900781;29;20052;-66
2022/05/18 12:51:33;;;;;;;1.40;0.65;;;;;;;;;;4931830;29;20044;-65
2022/05/18 12:54:10;;;;;;;3.67;0.60;;;;;;;;;;4928430;29;20056;-65
2022/05/18 12:56:42;;;;;;;1.58;0.38;;;;;;;;;;4907239;29;20053;-65
2022/05/18 12:59:18;;;;;;;1.08;0.40;;;;;;;;;;4875845;29;20777;-66
2022/05/18 13:02:12;;;;;;;0.60;0.30;;;;;;;;;;4875651;29;20057;-66
2022/05/18 13:04:47;;;;;;;0.50;0.40;;;;;;;;;;4921734;29;20056;-67
2022/05/18 13:07:24;;;;;;;0.93;0.32;;;;;;;;;;4951118;29;20051;-67
2022/05/18 13:10:16;;;;;;;1.42;0.47;;;;;;;;;;4951127;29;20062;-67
2022/05/18 13:13:02;;;;;;;1.67;0.75;;;;;;;;;;4951219;29;20066;-67
2022/05/18 13:15:59;;;;;;;1.73;0.40;;;;;;;;;;4969975;28;20774;-67
2022/05/18 13:18:38;;;;;;;1.15;0.47;;;;;;;;;;4973826;28;20414;-67
2022/05/18 13:21:08;;;;;;;3.22;0.93;;;;;;;;;;4973641;28;20054;-66
2022/05/18 13:23:53;;;;;;;2.10;0.47;;;;;;;;;;4981163;28;20055;-67
2022/05/18 13:26:35;;;;;;;1.77;0.40;;;;;;;;;;4993776;28;20054;-69
2022/05/18 13:29:14;;;;;;;1.20;0.52;;;;;;;;;;4948592;29;20062;-66
2022/05/18 13:31:53;;;;;;;1.38;1.15;;;;;;;;;;4944772;29;20063;-66
2022/05/18 13:34:27;;;;;;;0.60;0.40;;;;;;;;;;4945730;29;20055;-67
2022/05/18 13:37:00;;;;;;;1.58;0.80;;;;;;;;;;4954488;29;20512;-66
2022/05/18 13:39:35;;;;;;;2.95;0.43;;;;;;;;;;4954464;29;20500;-66
2022/05/18 13:42:15;;;;;;;2.35;0.63;;;;;;;;;;4954160;29;20414;-67
2022/05/18 13:44:46;;;;;;;;;;;;;;;;;;4955015;29;20066;-66
2022/05/18 13:47:34;;;;;;;1.02;0.30;;;;;;;;;;4954270;29;19922;-65
2022/05/18 13:50:08;;;;;;;0.82;0.30;;;;;;;;;;4954590;29;20047;-65
2022/05/18 13:52:43;;;;;;;1.05;0.60;;;;;;;;;;4954314;29;20070;-66
2022/05/18 13:55:18;;;;;;;3.42;0.50;;;;;;;;;;4954338;29;20051;-66
2022/05/18 13:58:03;;;;;;;0.22;0.20;;;;;;;;;;4956176;28;20047;-66
2022/05/18 14:00:47;;;;;;;1.10;0.70;;;;;;;;;;4953823;28;20047;-65
2022/05/18 14:03:22;;;;;;;0.77;0.30;;;;;;;;;;4969074;28;20062;-67
2022/05/18 14:05:56;;;;;;;0.80;0.30;;;;;;;;;;4950089;28;20049;-67
2022/05/18 14:08:40;;;;;;;1.13;0.30;;;;;;;;;;5032239;28;20041;-67
2022/05/18 14:11:19;;;;;;;4.00;0.40;;;;;;;;;;4996671;28;20057;-67
2022/05/18 14:13:52;;;;;;;1.20;0.77;;;;;;;;;;4996398;28;20517;-67
2022/05/18 14:16:47;;;;;;;0.50;0.30;;;;;;;;;;5012411;28;20054;-67
2022/05/18 14:19:22;;;;;;;4.22;0.40;;;;;;;;;;5012204;28;20049;-66
2022/05/18 14:22:15;;;;;;;1.23;0.32;;;;;;;;;;4992285;28;20055;-66
2022/05/18 14:24:57;;;;;;;0.20;0.20;;;;;;;;;;4947584;28;20058;-66
2022/05/18 14:27:41;;;;;;;3.53;0.40;;;;;;;;;;5011746;28;20123;-67
2022/05/18 14:30:26;;;;;;;1.27;0.20;;;;;;;;;;5012156;28;20058;-67
2022/05/18 14:33:33;;;;;;;0.73;0.35;;;;;;;;;;4972568;28;20054;-67
2022/05/18 14:36:15;;;;;;;1.23;0.30;;;;;;;;;;4925043;28;20412;-67
2022/05/18 14:38:50;;;;;;;1.83;1.10;;;;;;;;;;4930694;28;20505;-67
2022/05/18 14:41:22;;;;;;;1.45;0.40;;;;;;;;;;4915579;29;20071;-68
2022/05/18 14:43:59;;;;;;;2.65;0.38;;;;;;;;;;4900213;29;20048;-67
2022/05/18 14:46:34;;;;;;;1.30;0.50;;;;;;;;;;4915122;29;20520;-67
2022/05/18 14:49:17;;;;;;;1.77;0.40;;;;;;;;;;4926189;29;20389;-67
2022/05/18 14:52:09;;;;;;;1.48;0.45;;;;;;;;;;4934037;29;20534;-67
2022/05/18 14:54:50;;;;;;;0.90;0.40;;;;;;;;;;4934214;29;20054;-66
2022/05/18 14:57:41;;;;;;;1.35;0.45;;;;;;;;;;4934092;29;20052;-67
2022/05/18 15:00:22;;;;;;;1.02;0.52;;;;;;;;;;4936010;28;20051;-67
2022/05/18 15:02:59;;;;;;;0.55;0.20;;;;;;;;;;4972215;28;20055;-67
2022/05/18 15:05:30;;;;;;;2.83;0.50;;;;;;;;;;4924605;28;20059;-67
2022/05/18 15:08:01;;;;;;;0.77;0.60;;;;;;;;;;4924556;28;20503;-66
2022/05/18 15:10:47;;;;;;;0.57;0.30;;;;;;;;;;4983081;28;20518;-68
2022/05/18 15:13:26;;;;;;;0.60;0.50;;;;;;;;;;5011133;28;20065;-68
2022/05/18 15:16:05;;;;;;;0.55;0.35;;;;;;;;;;4994727;28;20077;-67
2022/05/18 15:19:00;;;;;;;0.70;0.32;;;;;;;;;;4991490;28;20062;-66
2022/05/18 15:21:41;;;;;;;0.50;0.30;;;;;;;;;;4991469;28;20452;-67
2022/05/18 15:24:19;;;;;;;0.73;0.30;;;;;;;;;;4970371;28;20050;-68
2022/05/18 15:26:52;;;;;;;0.93;0.90;;;;;;;;;;4943109;28;20541;-67
2022/05/18 15:29:36;;;;;;;1.15;0.30;;;;;;;;;;4991411;28;20061;-66
2022/05/18 15:32:14;;;;;;;1.05;0.40;;;;;;;;;;4991091;28;20050;-68
2022/05/18 15:34:51;;;;;;;0.35;0.22;;;;;;;;;;4991215;28;20058;-67
2022/05/18 15:37:23;;;;;;;1.67;0.40;;;;;;;;;;4948849;28;20045;-68
2022/05/18 15:39:53;;;;;;;0.80;0.30;;;;;;;;;;5009668;28;20610;-68
2022/05/18 15:42:26;;;;;;;0.63;0.30;;;;;;;;;;5011061;28;20053;-68
2022/05/18 15:44:57;;;;;;;0.70;0.30;;;;;;;;;;4977885;28;20058;-67
2022/05/18 15:47:33;;;;;;;0.88;0.40;;;;;;;;;;5010615;28;20048;-68
2022/05/18 15:50:09;;;;;;;0.50;0.20;;;;;;;;;;4978050;28;20125;-68
2022/05/18 15:52:44;;;;;;;2.65;0.50;;;;;;;;;;5010556;28;20049;-68
2022/05/18 15:55:18;;;;;;;0.55;0.20;;;;;;;;;;4980337;28;20505;-65
2022/05/18 15:57:49;;;;;;;2.20;0.60;;;;;;;;;;5030253;28;20049;-68
2022/05/18 16:00:26;;;;;;;0.55;0.35;;;;;;;;;;4997231;28;20516;-68
2022/05/18 16:02:57;;;;;;;1.33;0.60;;;;;;;;;;4983835;28;20418;-69